createdAt,value
2019-02-23T00:08:38.635Z,101276.67
2019-02-23T00:18:41.831Z,101295.39
2019-02-23T00:28:43.465Z,101310.23
2019-02-23T00:38:44.600Z,101297.67
2019-02-23T00:48:47.349Z,101318.22
2019-02-23T00:58:48.000Z,101323.19
2019-02-23T01:08:49.331Z,101322.80
2019-02-23T01:18:50.016Z,101319.76
2019-02-23T01:28:53.721Z,101310.78
2019-02-23T01:38:54.647Z,101317.95
2019-02-23T01:48:57.102Z,101312.21
2019-02-23T01:58:58.398Z,101328.74
2019-02-23T02:08:59.562Z,101318.02
2019-02-23T02:19:00.510Z,101323.19
2019-02-23T02:29:01.714Z,101312.72
2019-02-23T02:39:11.194Z,101303.80
2019-02-23T02:49:14.611Z,101301.28
2019-02-23T02:59:15.331Z,101298.30
2019-02-23T03:09:17.451Z,101294.92
2019-02-23T03:19:19.719Z,101298.34
2019-02-23T03:29:20.662Z,101285.91
2019-02-23T03:39:21.572Z,101267.91
2019-02-23T03:49:22.590Z,101262.52
2019-02-23T03:59:23.431Z,101263.81
2019-02-23T04:09:24.233Z,101281.02
2019-02-23T04:19:24.866Z,101285.39
2019-02-23T04:29:26.260Z,101281.13
2019-02-23T04:39:27.212Z,101277.36
2019-02-23T04:49:28.001Z,101284.59
2019-02-23T04:59:29.277Z,101283.30
2019-02-23T05:09:30.396Z,101273.39
2019-02-23T05:19:32.820Z,101271.22
2019-02-23T05:29:34.930Z,101283.01
2019-02-23T05:39:35.670Z,101284.79
2019-02-23T05:49:37.138Z,101303.66
2019-02-23T05:59:38.379Z,101311.83
2019-02-23T06:09:39.323Z,101318.55
2019-02-23T06:19:41.220Z,101321.80
2019-02-23T06:29:41.866Z,101322.34
2019-02-23T06:39:42.836Z,101314.20
2019-02-23T06:49:43.793Z,101322.72
2019-02-23T06:59:44.472Z,101352.33
2019-02-23T07:09:45.486Z,101362.59
2019-02-23T07:19:46.691Z,101367.91
2019-02-23T07:29:47.813Z,101374.74
2019-02-23T07:39:48.949Z,101387.28
2019-02-23T07:49:49.769Z,101389.57
2019-02-23T07:59:56.709Z,101393.13
2019-02-23T08:09:57.332Z,101372.06
2019-02-23T08:19:58.146Z,101354.61
2019-02-23T08:29:59.832Z,101350.27
2019-02-23T08:40:00.624Z,101344.11
2019-02-23T08:50:01.284Z,101334.14
2019-02-23T09:00:07.787Z,101323.30
2019-02-23T09:10:12.441Z,101323.18
2019-02-23T09:20:13.131Z,101345.88
2019-02-23T09:30:13.744Z,101346.43
2019-02-23T09:40:16.632Z,101322.72
2019-02-23T09:50:17.353Z,101307.47
2019-02-23T10:00:19.262Z,101304.80
2019-02-23T10:10:20.111Z,101284.19
2019-02-23T10:20:21.024Z,101285.47
2019-02-23T10:30:21.781Z,101287.14
2019-02-23T10:40:22.931Z,101289.32
2019-02-23T10:50:23.840Z,101320.59
2019-02-23T11:00:24.810Z,101335.58
2019-02-23T11:10:26.621Z,101346.66
2019-02-23T11:20:28.748Z,101343.09
2019-02-23T11:30:29.926Z,101327.80
2019-02-23T11:40:31.018Z,101326.66
2019-02-23T11:50:31.769Z,101292.70
2019-02-23T12:00:32.794Z,101282.62
2019-02-23T12:10:34.003Z,101264.59
2019-02-23T12:20:34.882Z,101258.83
2019-02-23T12:30:35.815Z,101250.52
2019-02-23T12:40:36.768Z,101230.00
2019-02-23T12:50:37.782Z,101170.97
2019-02-23T13:00:38.864Z,101164.38
2019-02-23T13:10:40.066Z,101116.53
2019-02-23T13:20:58.055Z,100971.86
2019-02-23T13:31:20.698Z,100988.36
2019-02-23T13:41:31.392Z,100999.84
2019-02-23T13:51:53.693Z,101104.37
2019-02-23T14:02:07.356Z,101133.79
2019-02-23T14:12:17.756Z,101002.02
2019-02-23T14:22:37.619Z,101068.03
2019-02-23T14:32:56.797Z,101050.03
2019-02-23T14:43:12.039Z,101029.31
2019-02-23T14:53:29.047Z,101084.89
2019-02-23T15:03:59.548Z,101101.74
2019-02-23T15:14:16.314Z,101139.60
2019-02-23T15:24:32.591Z,101176.23
2019-02-23T15:35:04.909Z,101188.70
2019-02-23T15:45:18.192Z,101110.87
2019-02-23T15:55:25.889Z,101144.19
2019-02-23T16:05:22.945Z,101115.70
2019-02-23T16:15:23.666Z,101046.58
2019-02-23T16:25:24.719Z,101196.34
2019-02-23T16:35:25.716Z,101188.28
2019-02-23T16:45:26.462Z,101207.97
2019-02-23T16:55:27.903Z,101196.78
2019-02-23T17:05:28.640Z,101194.44
2019-02-23T17:15:29.524Z,101188.64
2019-02-23T17:25:30.177Z,101186.81
2019-02-23T17:35:31.051Z,101196.22
2019-02-23T17:45:32.228Z,101192.45
2019-02-23T17:55:33.132Z,101198.77
2019-02-23T18:05:36.831Z,101208.78
2019-02-23T18:15:37.914Z,101218.61
2019-02-23T18:25:38.587Z,101221.05
2019-02-23T18:35:39.571Z,101223.05
2019-02-23T18:45:47.179Z,101234.90
2019-02-23T18:55:42.844Z,101223.17
2019-02-23T19:05:49.685Z,101226.69
2019-02-23T19:15:48.926Z,101226.44
2019-02-23T19:25:51.610Z,101230.98
2019-02-23T19:35:55.192Z,101213.84
2019-02-23T19:45:56.009Z,101228.16
2019-02-23T19:55:57.023Z,101230.99
2019-02-23T20:05:57.726Z,101237.36
2019-02-23T20:15:58.469Z,101227.13
2019-02-23T20:25:59.254Z,101217.22
2019-02-23T20:36:00.012Z,101213.58
2019-02-23T20:46:00.964Z,101235.08
2019-02-23T20:56:01.917Z,101227.16
2019-02-23T21:06:03.603Z,101235.50
2019-02-23T21:16:04.396Z,101243.83
2019-02-23T21:26:05.085Z,101235.62
2019-02-23T21:36:05.782Z,101228.88
2019-02-23T21:46:06.539Z,101227.31
2019-02-23T21:56:11.222Z,101239.69
2019-02-23T22:06:11.900Z,101242.61
2019-02-23T22:16:12.599Z,101242.75
2019-02-23T22:26:13.309Z,101235.19
2019-02-23T22:36:13.992Z,101242.91
2019-02-23T22:56:48.564Z,101246.82
2019-02-23T23:07:11.971Z,101238.00
2019-02-23T23:17:26.684Z,101241.27
2019-02-23T23:27:33.297Z,101235.97
2019-02-23T23:48:18.706Z,101246.92
2019-02-23T23:58:19.351Z,101238.36
